createdAt,value
2023-12-03T00:01:13.555Z,20.69
2023-12-03T00:02:45.249Z,19.80
2023-12-03T00:04:17.378Z,19.59
2023-12-03T00:05:49.056Z,20.42
2023-12-03T00:07:20.800Z,18.83
2023-12-03T00:09:22.299Z,20.08
2023-12-03T00:11:03.833Z,19.69
2023-12-03T00:12:35.375Z,19.69
2023-12-03T00:14:31.017Z,19.56
2023-12-03T00:16:03.869Z,19.66
2023-12-03T00:17:38.997Z,20.36
2023-12-03T00:19:21.900Z,19.97
2023-12-03T00:21:21.480Z,19.79
2023-12-03T00:22:53.564Z,20.27
2023-12-03T00:25:06.013Z,19.43
2023-12-03T00:26:58.576Z,19.93
2023-12-03T00:28:30.431Z,19.60
2023-12-03T00:30:08.668Z,18.98
2023-12-03T00:31:40.213Z,20.16
2023-12-03T00:33:18.064Z,19.98
2023-12-03T00:34:59.742Z,19.49
2023-12-03T00:36:42.522Z,20.42
2023-12-03T00:38:13.947Z,19.88
2023-12-03T00:39:46.028Z,19.69
2023-12-03T00:41:17.799Z,19.59
2023-12-03T00:42:59.413Z,20.69
2023-12-03T00:44:35.956Z,19.54
2023-12-03T00:46:08.205Z,20.07
2023-12-03T00:47:40.696Z,17.29
2023-12-03T00:49:12.546Z,16.60
2023-12-03T00:51:14.250Z,20.29
2023-12-03T00:52:56.440Z,19.46
2023-12-03T00:56:47.022Z,18.12
2023-12-03T00:58:42.942Z,19.84
2023-12-03T01:00:45.233Z,20.27
2023-12-03T01:02:45.024Z,20.41
2023-12-03T01:04:21.527Z,19.31
2023-12-03T01:05:53.133Z,19.57
2023-12-03T01:07:44.605Z,20.39
2023-12-03T01:09:21.669Z,19.30
2023-12-03T01:11:16.969Z,16.51
2023-12-03T01:13:19.335Z,18.73
2023-12-03T01:15:33.069Z,17.82
2023-12-03T01:17:14.881Z,18.09
2023-12-03T01:19:16.534Z,18.05
2023-12-03T01:21:26.339Z,17.60
2023-12-03T01:23:34.389Z,19.38
2023-12-03T01:25:27.652Z,17.08
2023-12-03T01:27:29.067Z,17.81
2023-12-03T01:29:00.468Z,19.42
2023-12-03T01:30:32.261Z,16.08
2023-12-03T01:32:03.747Z,17.66
2023-12-03T01:34:01.292Z,18.96
2023-12-03T01:35:34.759Z,17.94
2023-12-03T01:37:18.758Z,18.08
2023-12-03T01:39:05.147Z,18.75
2023-12-03T01:41:07.624Z,17.10
2023-12-03T01:43:09.031Z,18.25
2023-12-03T01:44:40.720Z,17.41
2023-12-03T01:46:22.274Z,17.24
2023-12-03T01:48:09.252Z,18.39
2023-12-03T01:49:47.008Z,13.20
2023-12-03T01:51:18.981Z,17.77
2023-12-03T01:53:16.317Z,16.00
2023-12-03T01:54:55.699Z,15.41
2023-12-03T01:57:17.620Z,17.01
2023-12-03T01:58:52.333Z,17.97
2023-12-03T02:00:36.390Z,18.16
2023-12-03T02:02:37.048Z,17.62
2023-12-03T02:04:56.610Z,16.32
2023-12-03T02:06:52.441Z,16.09
2023-12-03T02:08:24.306Z,17.98
2023-12-03T02:10:07.059Z,17.84
2023-12-03T02:11:38.831Z,19.27
2023-12-03T02:13:28.380Z,17.21
2023-12-03T02:15:05.541Z,18.37
2023-12-03T02:16:38.562Z,19.75
2023-12-03T02:18:15.708Z,19.42
2023-12-03T02:20:11.956Z,16.73
2023-12-03T02:21:43.226Z,16.52
2023-12-03T02:23:33.405Z,16.98
2023-12-03T02:25:04.802Z,19.12
2023-12-03T02:26:36.234Z,17.86
2023-12-03T02:28:45.148Z,19.05
2023-12-03T02:30:16.534Z,21.37
2023-12-03T02:31:57.907Z,20.98
2023-12-03T02:33:29.417Z,20.65
2023-12-03T02:35:01.105Z,19.48
2023-12-03T02:36:32.470Z,19.72
2023-12-03T02:38:03.756Z,21.21
2023-12-03T02:39:34.932Z,19.76
2023-12-03T02:41:06.060Z,20.44
2023-12-03T02:42:37.574Z,18.26
2023-12-03T02:44:09.093Z,17.30
2023-12-03T02:45:40.470Z,21.42
2023-12-03T02:47:11.825Z,20.78
2023-12-03T02:48:43.378Z,21.16
2023-12-03T02:50:15.068Z,19.93
2023-12-03T02:51:46.322Z,21.84
2023-12-03T02:53:17.861Z,16.92
2023-12-03T02:54:49.741Z,19.86
2023-12-03T02:56:21.379Z,20.96
2023-12-03T02:57:52.729Z,19.53
2023-12-03T02:59:23.995Z,19.35
2023-12-03T03:00:55.411Z,18.06
2023-12-03T03:02:26.732Z,20.95
2023-12-03T03:03:58.074Z,21.59
2023-12-03T03:05:29.946Z,21.64
2023-12-03T03:07:01.427Z,20.72
2023-12-03T03:08:32.817Z,19.81
2023-12-03T03:10:04.262Z,18.77
2023-12-03T03:11:35.419Z,19.42
2023-12-03T03:13:06.616Z,21.09
2023-12-03T03:14:37.832Z,21.81
2023-12-03T03:16:09.252Z,20.09
2023-12-03T03:17:40.632Z,20.62
2023-12-03T03:19:11.979Z,21.34
2023-12-03T03:20:43.539Z,21.15
2023-12-03T03:22:14.942Z,21.95
2023-12-03T03:23:46.390Z,18.30
2023-12-03T03:25:17.631Z,22.31
2023-12-03T03:26:48.907Z,21.83
2023-12-03T03:28:20.850Z,22.07
2023-12-03T03:29:52.428Z,22.64
2023-12-03T03:31:23.570Z,22.15
2023-12-03T03:32:55.131Z,22.15
2023-12-03T03:34:26.376Z,20.94
2023-12-03T03:35:57.892Z,21.80
2023-12-03T03:37:29.126Z,21.16
2023-12-03T03:39:00.815Z,21.89
2023-12-03T03:40:32.131Z,24.02
2023-12-03T03:42:03.455Z,21.03
2023-12-03T03:43:34.659Z,22.91
2023-12-03T03:45:06.152Z,24.11
2023-12-03T03:46:37.576Z,23.48
2023-12-03T03:48:08.783Z,23.55
2023-12-03T03:49:40.156Z,20.72
2023-12-03T03:51:11.440Z,19.65
2023-12-03T03:52:42.854Z,20.14
2023-12-03T03:54:14.513Z,23.19
2023-12-03T03:55:45.784Z,22.91
2023-12-03T03:57:17.145Z,22.13
2023-12-03T03:58:48.607Z,23.96
2023-12-03T04:00:20.481Z,21.58
2023-12-03T04:01:51.850Z,22.58
2023-12-03T04:03:23.346Z,21.48
2023-12-03T04:04:55.032Z,22.41
2023-12-03T04:06:26.540Z,17.51
2023-12-03T04:07:58.070Z,21.30
2023-12-03T04:09:29.463Z,17.73
2023-12-03T04:11:01.254Z,20.83
2023-12-03T04:12:32.875Z,21.59
2023-12-03T04:14:04.105Z,23.36
2023-12-03T04:15:35.372Z,19.30
2023-12-03T04:17:06.865Z,14.45
2023-12-03T04:18:39.787Z,20.55
2023-12-03T04:20:11.351Z,20.13
2023-12-03T04:21:42.869Z,21.32
2023-12-03T04:23:14.540Z,20.38
2023-12-03T04:24:46.097Z,21.13
2023-12-03T04:26:17.538Z,21.94
2023-12-03T04:27:48.998Z,23.23
2023-12-03T04:29:20.504Z,20.97
2023-12-03T04:30:53.106Z,22.18
2023-12-03T04:32:25.548Z,21.08
2023-12-03T04:33:56.865Z,22.73
2023-12-03T04:35:28.051Z,21.13
2023-12-03T04:36:59.380Z,18.79
2023-12-03T04:38:30.904Z,21.11
2023-12-03T04:40:02.157Z,20.89
2023-12-03T04:41:33.659Z,21.06
2023-12-03T04:43:05.151Z,22.11
2023-12-03T04:44:36.447Z,21.68
2023-12-03T04:46:07.727Z,22.75
2023-12-03T04:47:39.150Z,21.04
2023-12-03T04:49:10.599Z,21.97
2023-12-03T04:50:42.000Z,22.47
2023-12-03T04:52:13.633Z,19.75
2023-12-03T04:53:44.839Z,20.73
2023-12-03T04:55:16.576Z,18.81
2023-12-03T04:56:48.163Z,20.25
2023-12-03T04:58:19.374Z,20.81
2023-12-03T04:59:51.110Z,20.22
2023-12-03T05:01:23.038Z,20.07
2023-12-03T05:02:54.524Z,19.27
2023-12-03T05:04:25.875Z,20.37
2023-12-03T05:05:57.294Z,20.44
2023-12-03T05:07:29.077Z,20.84
2023-12-03T05:09:06.207Z,18.32
2023-12-03T05:10:37.552Z,17.69
2023-12-03T05:12:08.934Z,18.48
2023-12-03T05:13:40.977Z,19.80
2023-12-03T05:15:12.291Z,21.05
2023-12-03T05:16:43.706Z,20.34
2023-12-03T05:18:15.128Z,19.98
2023-12-03T05:19:46.701Z,20.45
2023-12-03T05:21:18.424Z,19.99
2023-12-03T05:22:49.911Z,18.53
2023-12-03T05:24:21.408Z,19.17
2023-12-03T05:25:53.046Z,19.94
2023-12-03T05:27:34.893Z,20.01
2023-12-03T05:29:26.173Z,20.32
2023-12-03T05:30:57.884Z,19.62
2023-12-03T05:32:29.433Z,19.58
2023-12-03T05:34:01.280Z,19.66
2023-12-03T05:35:32.796Z,20.30
2023-12-03T05:37:04.362Z,19.51
2023-12-03T05:38:35.876Z,17.30
2023-12-03T05:40:07.329Z,17.67
2023-12-03T05:41:38.623Z,19.04
2023-12-03T05:43:10.088Z,17.63
2023-12-03T05:44:41.616Z,17.68
2023-12-03T05:46:12.949Z,18.15
2023-12-03T05:47:44.348Z,17.36
2023-12-03T05:49:15.942Z,17.73
2023-12-03T05:50:47.727Z,17.68
2023-12-03T05:52:19.091Z,17.91
2023-12-03T05:53:50.776Z,17.85
2023-12-03T05:55:21.989Z,17.55
2023-12-03T05:56:53.684Z,16.74
2023-12-03T05:58:25.201Z,16.64
2023-12-03T05:59:57.959Z,17.11
2023-12-03T06:01:29.450Z,16.33
2023-12-03T06:03:00.952Z,16.32
2023-12-03T06:04:37.683Z,17.41
2023-12-03T06:06:09.220Z,17.49
2023-12-03T06:07:41.041Z,17.60
2023-12-03T06:09:13.245Z,17.27
2023-12-03T06:10:47.044Z,16.86
2023-12-03T06:12:19.903Z,17.37
2023-12-03T06:13:51.675Z,17.14
2023-12-03T06:15:23.038Z,16.70
2023-12-03T06:16:54.537Z,17.00
2023-12-03T06:18:26.181Z,16.82
2023-12-03T06:19:57.529Z,16.98
2023-12-03T06:21:29.470Z,16.95
2023-12-03T06:23:00.725Z,17.24
2023-12-03T06:24:32.192Z,16.39
2023-12-03T06:26:03.999Z,16.15
2023-12-03T06:27:35.587Z,15.75
2023-12-03T06:29:07.066Z,16.39
2023-12-03T06:30:38.256Z,15.92
2023-12-03T06:32:09.526Z,15.82
2023-12-03T06:33:41.389Z,15.90
2023-12-03T06:35:12.842Z,15.43
2023-12-03T06:36:44.378Z,15.44
2023-12-03T06:38:15.709Z,15.43
2023-12-03T06:39:47.420Z,14.82
2023-12-03T06:41:18.765Z,14.95
2023-12-03T06:42:50.086Z,14.84
2023-12-03T06:44:31.118Z,14.56
2023-12-03T06:46:09.777Z,13.61
2023-12-03T06:47:41.277Z,13.77
2023-12-03T06:49:12.640Z,13.88
2023-12-03T06:50:46.346Z,14.03
2023-12-03T06:52:17.967Z,13.81
2023-12-03T06:53:49.684Z,14.04
2023-12-03T06:55:21.421Z,13.99
2023-12-03T06:56:52.921Z,14.45
2023-12-03T06:58:24.244Z,14.26
2023-12-03T06:59:55.755Z,14.19
2023-12-03T07:01:32.469Z,13.94
2023-12-03T07:03:03.699Z,13.76
2023-12-03T07:04:35.034Z,14.03
2023-12-03T07:06:06.777Z,13.92
2023-12-03T07:07:43.300Z,14.30
2023-12-03T07:09:36.700Z,14.32
2023-12-03T07:11:11.398Z,13.54
2023-12-03T07:12:43.769Z,12.62
2023-12-03T07:14:15.234Z,13.82
2023-12-03T07:15:46.688Z,12.99
2023-12-03T07:17:18.469Z,13.75
2023-12-03T07:18:50.232Z,13.23
2023-12-03T07:20:22.031Z,13.41
2023-12-03T07:21:53.592Z,13.14
2023-12-03T07:23:44.928Z,13.73
2023-12-03T07:25:16.497Z,12.94
2023-12-03T07:26:47.890Z,12.97
2023-12-03T07:28:19.493Z,13.30
2023-12-03T07:29:50.798Z,12.74
2023-12-03T07:31:22.194Z,13.46
2023-12-03T07:32:53.784Z,13.38
2023-12-03T07:34:25.573Z,13.15
2023-12-03T07:35:57.017Z,12.94
2023-12-03T07:37:28.458Z,13.63
2023-12-03T07:38:59.902Z,12.80
2023-12-03T07:40:31.505Z,12.48
2023-12-03T07:42:03.087Z,12.80
2023-12-03T07:43:34.559Z,13.20
2023-12-03T07:45:05.968Z,13.48
2023-12-03T07:46:37.470Z,13.21
2023-12-03T07:48:08.836Z,12.13
2023-12-03T07:49:40.202Z,13.41
2023-12-03T07:51:12.641Z,13.06
2023-12-03T07:52:43.956Z,13.19
2023-12-03T07:54:15.467Z,13.87
2023-12-03T07:55:46.986Z,13.26
2023-12-03T07:57:18.605Z,13.60
2023-12-03T07:58:50.016Z,13.74
2023-12-03T08:00:21.886Z,12.90
2023-12-03T08:01:53.477Z,13.45
2023-12-03T08:03:25.220Z,12.94
2023-12-03T08:04:57.875Z,13.68
2023-12-03T08:06:29.676Z,12.92
2023-12-03T08:08:01.539Z,12.62
2023-12-03T08:09:33.347Z,13.09
2023-12-03T08:11:05.194Z,12.73
2023-12-03T08:12:36.515Z,12.37
2023-12-03T08:14:08.120Z,13.22
2023-12-03T08:15:39.566Z,12.21
2023-12-03T08:17:10.850Z,12.52
2023-12-03T08:18:42.264Z,12.92
2023-12-03T08:20:13.483Z,12.46
2023-12-03T08:21:44.806Z,12.49
2023-12-03T08:23:21.149Z,13.57
2023-12-03T08:24:52.494Z,13.43
2023-12-03T08:26:24.061Z,12.80
2023-12-03T08:27:55.532Z,12.23
2023-12-03T08:29:26.999Z,12.82
2023-12-03T08:30:58.567Z,12.49
2023-12-03T08:32:30.154Z,12.31
2023-12-03T08:34:02.110Z,12.12
2023-12-03T08:35:33.496Z,12.75
2023-12-03T08:37:06.230Z,13.06
2023-12-03T08:38:38.031Z,12.00
2023-12-03T08:40:09.620Z,12.35
2023-12-03T08:41:40.953Z,12.00
2023-12-03T08:43:12.381Z,12.91
2023-12-03T08:44:43.898Z,13.04
2023-12-03T08:46:15.435Z,12.87
2023-12-03T08:47:47.070Z,12.23
2023-12-03T08:49:56.842Z,12.49
2023-12-03T08:51:28.649Z,12.84
2023-12-03T08:53:00.418Z,12.33
2023-12-03T08:54:32.375Z,12.88
2023-12-03T08:58:25.443Z,12.67
2023-12-03T08:59:57.903Z,12.17
2023-12-03T09:04:33.087Z,12.31
2023-12-03T09:08:15.619Z,12.57
2023-12-03T09:09:47.590Z,12.85
2023-12-03T09:11:19.436Z,12.68
2023-12-03T09:13:04.407Z,12.53
2023-12-03T09:14:38.211Z,11.74
2023-12-03T09:16:10.256Z,12.45
2023-12-03T09:17:41.754Z,12.04
2023-12-03T09:19:13.503Z,12.49
2023-12-03T09:20:45.220Z,12.37
2023-12-03T09:22:16.802Z,12.51
2023-12-03T09:23:48.194Z,11.52
2023-12-03T09:25:19.753Z,11.52
2023-12-03T09:26:51.687Z,11.55
2023-12-03T09:28:33.701Z,11.56
2023-12-03T09:30:04.840Z,11.12
2023-12-03T09:31:36.341Z,11.64
2023-12-03T09:33:08.719Z,11.26
2023-12-03T09:34:40.125Z,10.90
2023-12-03T09:36:11.447Z,11.04
2023-12-03T09:37:42.748Z,11.30
2023-12-03T09:39:13.961Z,10.90
2023-12-03T09:40:46.100Z,10.28
2023-12-03T09:42:17.478Z,11.35
2023-12-03T09:43:48.950Z,11.17
2023-12-03T09:45:20.421Z,10.34
2023-12-03T09:46:51.827Z,10.81
2023-12-03T09:48:23.375Z,10.54
2023-12-03T09:49:55.232Z,11.55
2023-12-03T09:51:26.512Z,11.73
2023-12-03T09:52:58.159Z,11.81
2023-12-03T09:54:29.849Z,11.07
2023-12-03T09:56:01.267Z,11.71
2023-12-03T09:57:32.808Z,11.13
2023-12-03T09:59:04.593Z,10.21
2023-12-03T10:00:35.877Z,10.98
2023-12-03T10:02:07.194Z,11.44
2023-12-03T10:03:39.432Z,11.84
2023-12-03T10:05:10.834Z,12.04
2023-12-03T10:06:42.088Z,11.43
2023-12-03T10:08:13.504Z,11.73
2023-12-03T10:09:44.747Z,11.35
2023-12-03T10:11:16.111Z,11.06
2023-12-03T10:12:47.385Z,11.23
2023-12-03T10:14:18.877Z,11.59
2023-12-03T10:15:50.370Z,11.05
2023-12-03T10:17:21.689Z,11.11
2023-12-03T10:18:53.226Z,11.79
2023-12-03T10:20:24.905Z,10.98
2023-12-03T10:21:56.472Z,11.41
2023-12-03T10:23:57.477Z,12.16
2023-12-03T10:25:31.663Z,12.00
2023-12-03T10:27:09.282Z,11.61
2023-12-03T10:28:50.684Z,10.83
2023-12-03T10:30:22.012Z,10.78
2023-12-03T10:31:53.462Z,11.13
2023-12-03T10:33:24.767Z,11.03
2023-12-03T10:34:56.106Z,11.30
2023-12-03T10:36:27.720Z,12.06
2023-12-03T10:37:59.227Z,12.04
2023-12-03T10:39:30.576Z,11.48
2023-12-03T10:41:01.885Z,11.49
2023-12-03T10:42:33.107Z,11.11
2023-12-03T10:44:04.537Z,11.14
2023-12-03T10:45:35.949Z,10.99
2023-12-03T10:47:07.237Z,11.29
2023-12-03T10:48:38.673Z,10.87
2023-12-03T10:50:09.957Z,11.14
2023-12-03T10:51:41.420Z,10.98
2023-12-03T10:53:12.729Z,10.44
2023-12-03T10:54:44.041Z,11.23
2023-12-03T10:56:15.309Z,10.43
2023-12-03T10:57:47.434Z,10.09
2023-12-03T10:59:19.027Z,10.67
2023-12-03T11:00:50.488Z,10.41
2023-12-03T11:02:21.797Z,11.16
2023-12-03T11:03:53.325Z,11.10
2023-12-03T11:05:24.742Z,11.48
2023-12-03T11:06:56.627Z,10.48
2023-12-03T11:08:28.026Z,11.45
2023-12-03T11:09:59.624Z,11.24
2023-12-03T11:11:31.024Z,11.20
2023-12-03T11:13:02.686Z,10.84
2023-12-03T11:14:34.218Z,10.82
2023-12-03T11:16:05.854Z,11.53
2023-12-03T11:17:37.483Z,11.34
2023-12-03T11:19:08.872Z,10.93
2023-12-03T11:20:40.445Z,10.88
2023-12-03T11:22:12.105Z,11.08
2023-12-03T11:23:43.453Z,11.46
2023-12-03T11:25:15.057Z,10.72
2023-12-03T11:26:46.474Z,10.88
2023-12-03T11:28:22.810Z,11.32
2023-12-03T11:29:54.332Z,11.86
2023-12-03T11:31:25.787Z,11.25
2023-12-03T11:33:15.473Z,11.49
2023-12-03T11:34:59.479Z,11.29
2023-12-03T11:36:31.390Z,11.65
2023-12-03T11:38:03.096Z,11.50
2023-12-03T11:39:34.809Z,11.22
2023-12-03T11:41:06.690Z,11.63
2023-12-03T11:42:38.357Z,11.59
2023-12-03T11:44:20.752Z,11.50
2023-12-03T11:45:52.073Z,11.54
2023-12-03T11:47:28.508Z,11.55
2023-12-03T11:49:20.357Z,11.37
2023-12-03T11:51:26.921Z,11.84
2023-12-03T11:53:38.747Z,11.45
2023-12-03T11:55:51.615Z,11.43
2023-12-03T11:59:27.891Z,11.62
2023-12-03T12:00:59.395Z,11.56
2023-12-03T12:03:00.946Z,11.46
2023-12-03T12:04:58.052Z,11.98
2023-12-03T12:06:41.210Z,11.35
2023-12-03T12:08:25.493Z,11.40
2023-12-03T12:09:56.815Z,12.62
2023-12-03T12:11:28.378Z,12.40
2023-12-03T12:12:59.894Z,12.27
2023-12-03T12:14:31.271Z,12.70
2023-12-03T12:16:02.418Z,12.78
2023-12-03T12:17:33.740Z,12.64
2023-12-03T12:19:05.137Z,11.97
2023-12-03T12:20:36.565Z,12.92
2023-12-03T12:24:14.408Z,11.96
2023-12-03T12:27:56.828Z,12.31
2023-12-03T12:29:38.477Z,12.42
2023-12-03T12:31:09.765Z,12.68
2023-12-03T12:32:41.269Z,12.25
2023-12-03T12:34:22.799Z,12.24
2023-12-03T12:35:54.372Z,12.15
2023-12-03T12:37:39.877Z,12.39
2023-12-03T12:39:12.658Z,12.29
2023-12-03T12:40:43.977Z,12.24
2023-12-03T12:42:25.317Z,12.41
2023-12-03T12:44:01.731Z,12.39
2023-12-03T12:45:33.155Z,12.02
2023-12-03T12:47:09.576Z,12.26
2023-12-03T12:48:43.786Z,12.24
2023-12-03T12:50:15.469Z,12.51
2023-12-03T12:51:47.304Z,12.10
2023-12-03T12:53:19.905Z,12.70
2023-12-03T12:55:01.173Z,12.73
2023-12-03T12:56:35.232Z,13.16
2023-12-03T12:58:06.546Z,12.58
2023-12-03T12:59:37.946Z,12.82
2023-12-03T13:01:09.233Z,13.11
2023-12-03T13:02:40.653Z,13.36
2023-12-03T13:04:12.299Z,13.47
2023-12-03T13:05:48.755Z,13.25
2023-12-03T13:07:20.265Z,13.38
2023-12-03T13:08:56.888Z,13.53
2023-12-03T13:10:38.283Z,13.97
2023-12-03T13:12:09.516Z,13.21
2023-12-03T13:13:46.306Z,13.18
2023-12-03T13:15:17.645Z,13.64
2023-12-03T13:16:56.830Z,13.42
2023-12-03T13:18:29.161Z,13.53
2023-12-03T13:20:11.099Z,13.18
2023-12-03T13:21:57.427Z,13.28
2023-12-03T13:23:28.819Z,13.47
2023-12-03T13:25:00.795Z,13.65
2023-12-03T13:28:38.559Z,13.01
2023-12-03T13:30:35.682Z,13.25
2023-12-03T13:32:07.202Z,13.95
2023-12-03T13:33:38.971Z,13.30
2023-12-03T13:35:10.437Z,13.81
2023-12-03T13:36:46.716Z,13.15
2023-12-03T13:38:18.177Z,13.13
2023-12-03T13:39:49.573Z,13.15
2023-12-03T13:41:20.799Z,13.22
2023-12-03T13:42:52.088Z,13.75
2023-12-03T13:44:23.586Z,13.77
2023-12-03T13:45:55.356Z,13.66
2023-12-03T13:47:32.092Z,13.44
2023-12-03T13:49:13.571Z,13.24
2023-12-03T13:50:44.995Z,13.65
2023-12-03T13:52:26.361Z,13.59
2023-12-03T13:53:57.893Z,13.26
2023-12-03T13:55:49.633Z,13.59
2023-12-03T13:57:28.671Z,13.93
2023-12-03T13:59:20.575Z,13.94
2023-12-03T14:01:07.085Z,14.38
2023-12-03T14:02:41.370Z,13.76
2023-12-03T14:05:25.865Z,14.05
2023-12-03T14:06:58.084Z,13.95
2023-12-03T14:08:30.363Z,13.96
2023-12-03T14:10:01.990Z,14.51
2023-12-03T14:11:53.831Z,14.04
2023-12-03T14:13:45.512Z,14.21
2023-12-03T14:15:16.930Z,14.70
2023-12-03T14:16:48.511Z,15.79
2023-12-03T14:18:30.133Z,14.08
2023-12-03T14:20:06.972Z,13.92
2023-12-03T14:22:00.682Z,14.26
2023-12-03T14:23:32.495Z,14.25
2023-12-03T14:25:09.490Z,14.34
2023-12-03T14:28:38.197Z,14.16
2023-12-03T14:30:16.990Z,14.16
2023-12-03T14:32:23.327Z,14.25
2023-12-03T14:34:10.531Z,14.08
2023-12-03T14:35:42.617Z,14.56
2023-12-03T14:37:13.912Z,14.61
2023-12-03T14:39:05.268Z,15.04
2023-12-03T14:40:38.988Z,14.15
2023-12-03T14:42:20.515Z,14.04
2023-12-03T14:43:57.707Z,13.96
2023-12-03T14:45:29.091Z,14.53
2023-12-03T14:47:00.892Z,14.21
2023-12-03T14:48:32.209Z,14.04
2023-12-03T14:50:03.559Z,14.48
2023-12-03T14:51:35.001Z,14.57
2023-12-03T14:53:06.481Z,14.70
2023-12-03T14:54:47.356Z,14.51
2023-12-03T14:56:52.300Z,14.83
2023-12-03T14:58:23.788Z,14.46
2023-12-03T15:00:10.872Z,14.57
2023-12-03T15:02:32.023Z,14.25
2023-12-03T15:04:05.700Z,14.30
2023-12-03T15:05:37.692Z,13.76
2023-12-03T15:07:09.315Z,13.46
2023-12-03T15:08:40.599Z,13.75
2023-12-03T15:10:13.337Z,13.69
2023-12-03T15:11:45.005Z,13.11
2023-12-03T15:13:31.519Z,13.18
2023-12-03T15:17:15.622Z,13.35
2023-12-03T15:18:47.384Z,13.57
2023-12-03T15:20:18.805Z,13.58
2023-12-03T15:22:18.962Z,13.94
2023-12-03T15:23:52.288Z,13.86
2023-12-03T15:25:23.857Z,12.98
2023-12-03T15:26:57.085Z,14.28
2023-12-03T15:28:38.626Z,14.11
2023-12-03T15:30:20.568Z,13.64
2023-12-03T15:32:07.465Z,14.36
2023-12-03T15:33:39.469Z,14.53
2023-12-03T15:35:11.109Z,14.59
2023-12-03T15:36:42.663Z,14.46
2023-12-03T15:38:14.200Z,14.00
2023-12-03T15:39:46.121Z,13.93
2023-12-03T15:41:18.048Z,15.03
2023-12-03T15:42:55.265Z,14.90
2023-12-03T15:44:27.092Z,14.81
2023-12-03T15:46:00.664Z,14.75
2023-12-03T15:47:33.676Z,14.49
2023-12-03T15:49:13.336Z,14.56
2023-12-03T15:50:51.106Z,14.41
2023-12-03T15:52:22.734Z,14.77
2023-12-03T15:53:54.134Z,14.30
2023-12-03T15:55:25.863Z,14.92
2023-12-03T15:57:42.563Z,15.31
2023-12-03T15:59:16.439Z,14.94
2023-12-03T16:00:48.605Z,15.03
2023-12-03T16:02:20.443Z,15.11
2023-12-03T16:06:08.154Z,15.90
2023-12-03T16:07:40.372Z,16.20
2023-12-03T16:09:11.812Z,15.85
2023-12-03T16:10:43.908Z,16.28
2023-12-03T16:12:15.494Z,16.27
2023-12-03T16:13:47.296Z,16.52
2023-12-03T16:15:18.798Z,16.36
2023-12-03T16:18:49.773Z,16.07
2023-12-03T16:20:21.865Z,16.56
2023-12-03T16:21:53.518Z,16.63
2023-12-03T16:23:25.638Z,16.30
2023-12-03T16:24:57.489Z,16.42
2023-12-03T16:26:30.649Z,16.53
2023-12-03T16:28:02.791Z,16.73
2023-12-03T16:29:34.635Z,16.40
2023-12-03T16:31:06.159Z,16.67
2023-12-03T16:32:37.888Z,16.55
2023-12-03T16:34:10.012Z,16.33
2023-12-03T16:35:42.249Z,16.59
2023-12-03T16:37:14.059Z,16.25
2023-12-03T16:38:45.746Z,15.96
2023-12-03T16:40:17.656Z,16.53
2023-12-03T16:41:55.375Z,16.21
2023-12-03T16:43:27.404Z,16.42
2023-12-03T16:44:58.911Z,15.98
2023-12-03T16:46:40.323Z,16.93
2023-12-03T16:48:11.995Z,16.30
2023-12-03T16:49:44.252Z,16.17
2023-12-03T16:51:56.381Z,15.66
2023-12-03T16:53:28.074Z,15.24
2023-12-03T16:55:00.988Z,15.58
2023-12-03T16:56:42.209Z,15.78
2023-12-03T16:58:46.265Z,15.75
2023-12-03T17:00:20.703Z,16.52
2023-12-03T17:01:52.262Z,15.77
2023-12-03T17:03:55.160Z,15.86
2023-12-03T17:05:26.986Z,16.08
2023-12-03T17:06:58.866Z,16.17
2023-12-03T17:08:42.963Z,16.12
2023-12-03T17:10:14.647Z,16.12
2023-12-03T17:11:46.520Z,15.72
2023-12-03T17:13:19.165Z,15.98
2023-12-03T17:14:51.890Z,15.35
2023-12-03T17:16:23.437Z,15.90
2023-12-03T17:18:21.039Z,15.79
2023-12-03T17:19:54.471Z,15.70
2023-12-03T17:23:38.727Z,15.24
2023-12-03T17:25:10.662Z,14.36
2023-12-03T17:26:42.244Z,14.57
2023-12-03T17:28:13.968Z,14.05
2023-12-03T17:29:45.681Z,14.42
2023-12-03T17:31:27.360Z,14.10
2023-12-03T17:33:10.454Z,13.85
2023-12-03T17:34:41.765Z,14.31
2023-12-03T17:36:37.233Z,14.60
2023-12-03T17:38:08.808Z,13.63
2023-12-03T17:39:50.040Z,14.16
2023-12-03T17:42:02.563Z,12.85
2023-12-03T17:43:34.784Z,13.31
2023-12-03T17:45:23.983Z,13.14
2023-12-03T17:46:56.235Z,12.88
2023-12-03T17:48:28.065Z,12.44
2023-12-03T17:50:19.377Z,13.02
2023-12-03T17:51:51.358Z,13.19
2023-12-03T17:53:23.032Z,13.04
2023-12-03T17:54:55.141Z,12.83
2023-12-03T17:56:27.128Z,11.56
2023-12-03T17:58:06.186Z,12.91
2023-12-03T17:59:37.988Z,13.58
2023-12-03T18:01:09.662Z,13.75
2023-12-03T18:03:16.130Z,13.42
2023-12-03T18:04:52.875Z,12.98
2023-12-03T18:06:24.553Z,13.69
2023-12-03T18:07:56.375Z,14.08
2023-12-03T18:09:36.905Z,14.22
2023-12-03T18:11:18.364Z,14.24
2023-12-03T18:13:00.413Z,14.19
2023-12-03T18:14:32.098Z,14.60
2023-12-03T18:16:04.204Z,14.15
2023-12-03T18:18:02.323Z,14.53
2023-12-03T18:19:35.272Z,14.53
2023-12-03T18:21:26.866Z,14.92
2023-12-03T18:23:21.204Z,14.92
2023-12-03T18:25:12.632Z,14.73
2023-12-03T18:27:25.797Z,15.06
2023-12-03T18:28:57.084Z,14.98
2023-12-03T18:30:39.891Z,15.34
2023-12-03T18:32:16.806Z,14.64
2023-12-03T18:33:48.568Z,15.21
2023-12-03T18:35:25.253Z,15.20
2023-12-03T18:37:22.971Z,14.32
2023-12-03T18:39:14.159Z,14.71
2023-12-03T18:40:45.895Z,13.86
2023-12-03T18:42:17.687Z,14.53
2023-12-03T18:43:49.056Z,13.98
2023-12-03T18:45:31.065Z,15.12
2023-12-03T18:47:13.100Z,14.22
2023-12-03T18:49:14.761Z,13.03
2023-12-03T18:50:56.248Z,13.89
2023-12-03T18:52:28.029Z,13.93
2023-12-03T18:54:19.166Z,14.15
2023-12-03T18:56:11.666Z,14.17
2023-12-03T18:57:48.127Z,13.89
2023-12-03T18:59:29.820Z,13.13
2023-12-03T19:01:02.597Z,13.68
2023-12-03T19:02:33.818Z,14.35
2023-12-03T19:04:06.703Z,13.60
2023-12-03T19:05:38.512Z,13.78
2023-12-03T19:07:10.185Z,14.42
2023-12-03T19:08:41.354Z,14.95
2023-12-03T19:10:13.349Z,13.46
2023-12-03T19:12:10.182Z,13.76
2023-12-03T19:15:53.575Z,14.12
2023-12-03T19:17:41.945Z,14.08
2023-12-03T19:19:13.208Z,14.33
2023-12-03T19:20:44.648Z,13.80
2023-12-03T19:22:44.410Z,14.71
2023-12-03T19:24:27.248Z,14.48
2023-12-03T19:26:08.604Z,14.18
2023-12-03T19:27:54.083Z,15.00
2023-12-03T19:29:40.545Z,15.14
2023-12-03T19:31:26.692Z,14.74
2023-12-03T19:32:58.422Z,14.96
2023-12-03T19:36:01.227Z,14.33
2023-12-03T19:37:37.962Z,14.54
2023-12-03T19:39:09.193Z,14.81
2023-12-03T19:40:55.825Z,15.34
2023-12-03T19:42:27.234Z,14.82
2023-12-03T19:44:18.863Z,14.72
2023-12-03T19:45:50.365Z,14.88
2023-12-03T19:47:21.840Z,14.73
2023-12-03T19:48:53.057Z,15.38
2023-12-03T19:50:24.251Z,15.56
2023-12-03T19:52:02.050Z,15.75
2023-12-03T19:54:01.006Z,15.00
2023-12-03T19:55:42.775Z,15.57
2023-12-03T19:57:20.092Z,15.80
2023-12-03T19:58:51.653Z,15.72
2023-12-03T20:00:24.020Z,15.99
2023-12-03T20:01:55.420Z,16.15
2023-12-03T20:03:26.786Z,16.26
2023-12-03T20:04:58.257Z,16.43
2023-12-03T20:06:29.584Z,16.15
2023-12-03T20:08:11.506Z,16.06
2023-12-03T20:09:43.064Z,16.52
2023-12-03T20:11:14.314Z,16.08
2023-12-03T20:13:00.714Z,16.51
2023-12-03T20:14:42.031Z,15.92
2023-12-03T20:16:13.367Z,16.36
2023-12-03T20:17:44.597Z,16.33
2023-12-03T20:19:15.917Z,16.52
2023-12-03T20:20:47.233Z,16.76
2023-12-03T20:24:44.531Z,16.12
2023-12-03T20:26:15.724Z,16.46
2023-12-03T20:28:05.725Z,15.34
2023-12-03T20:30:07.006Z,15.94
2023-12-03T20:31:58.184Z,15.40
2023-12-03T20:33:29.531Z,15.37
2023-12-03T20:35:02.672Z,15.58
2023-12-03T20:36:44.870Z,14.59
2023-12-03T20:38:16.870Z,14.29
2023-12-03T20:39:58.261Z,13.71
2023-12-03T20:42:12.375Z,13.48
2023-12-03T20:43:53.941Z,13.52
2023-12-03T20:45:30.464Z,13.26
2023-12-03T20:47:29.654Z,12.32
2023-12-03T20:49:44.109Z,12.44
2023-12-03T20:53:11.325Z,12.14
2023-12-03T20:55:24.167Z,11.85
2023-12-03T20:57:15.947Z,11.60
2023-12-03T20:58:47.843Z,11.59
2023-12-03T21:00:54.993Z,11.29
2023-12-03T21:02:26.789Z,10.92
2023-12-03T21:04:21.469Z,11.00
2023-12-03T21:05:53.185Z,10.80
2023-12-03T21:07:34.894Z,11.14
2023-12-03T21:09:13.190Z,10.65
2023-12-03T21:11:13.946Z,11.00
2023-12-03T21:12:56.501Z,10.62
2023-12-03T21:14:29.225Z,10.56
2023-12-03T21:16:03.061Z,10.69
2023-12-03T21:18:06.347Z,10.37
2023-12-03T21:19:38.435Z,10.56